sensor_id;sensor_type;location;lat;lon;timestamp;P1;durP1;ratioP1;P2;durP2;ratioP2
16969;SDS011;8601;48.718;8.992;2023-06-26T00:01:30;8.90;;;7.50;;
16969;SDS011;8601;48.718;8.992;2023-06-26T00:03:57;8.53;;;7.73;;
16969;SDS011;8601;48.718;8.992;2023-06-26T00:06:24;8.73;;;7.37;;
16969;SDS011;8601;48.718;8.992;2023-06-26T00:08:51;8.33;;;7.53;;
16969;SDS011;8601;48.718;8.992;2023-06-26T00:11:18;8.23;;;7.43;;
16969;SDS011;8601;48.718;8.992;2023-06-26T00:13:47;8.47;;;7.67;;
16969;SDS011;8601;48.718;8.992;2023-06-26T00:16:14;10.33;;;7.97;;
16969;SDS011;8601;48.718;8.992;2023-06-26T00:18:41;8.67;;;7.50;;
16969;SDS011;8601;48.718;8.992;2023-06-26T00:21:08;8.80;;;7.93;;
16969;SDS011;8601;48.718;8.992;2023-06-26T00:23:35;8.20;;;7.40;;
16969;SDS011;8601;48.718;8.992;2023-06-26T00:26:02;8.37;;;7.57;;
16969;SDS011;8601;48.718;8.992;2023-06-26T00:28:30;9.90;;;8.00;;
16969;SDS011;8601;48.718;8.992;2023-06-26T00:30:58;7.97;;;7.17;;
16969;SDS011;8601;48.718;8.992;2023-06-26T00:33:26;9.20;;;7.00;;
16969;SDS011;8601;48.718;8.992;2023-06-26T00:35:53;8.63;;;7.53;;
16969;SDS011;8601;48.718;8.992;2023-06-26T00:38:20;7.60;;;6.87;;
16969;SDS011;8601;48.718;8.992;2023-06-26T00:40:47;8.57;;;7.73;;
16969;SDS011;8601;48.718;8.992;2023-06-26T00:43:14;8.73;;;7.80;;
16969;SDS011;8601;48.718;8.992;2023-06-26T00:45:41;8.53;;;7.70;;
16969;SDS011;8601;48.718;8.992;2023-06-26T00:48:09;8.93;;;7.67;;
16969;SDS011;8601;48.718;8.992;2023-06-26T00:50:38;8.23;;;7.43;;
16969;SDS011;8601;48.718;8.992;2023-06-26T00:53:05;7.77;;;6.97;;
16969;SDS011;8601;48.718;8.992;2023-06-26T00:55:32;8.73;;;7.43;;
16969;SDS011;8601;48.718;8.992;2023-06-26T00:57:59;8.13;;;7.33;;
16969;SDS011;8601;48.718;8.992;2023-06-26T01:00:26;9.07;;;7.60;;
16969;SDS011;8601;48.718;8.992;2023-06-26T01:02:53;8.80;;;7.90;;
16969;SDS011;8601;48.718;8.992;2023-06-26T01:05:22;8.80;;;7.90;;
16969;SDS011;8601;48.718;8.992;2023-06-26T01:07:49;8.60;;;7.70;;
16969;SDS011;8601;48.718;8.992;2023-06-26T01:10:16;8.30;;;7.50;;
16969;SDS011;8601;48.718;8.992;2023-06-26T01:12:44;10.83;;;7.67;;
16969;SDS011;8601;48.718;8.992;2023-06-26T01:15:11;8.87;;;7.97;;
16969;SDS011;8601;48.718;8.992;2023-06-26T01:17:38;8.27;;;7.40;;
16969;SDS011;8601;48.718;8.992;2023-06-26T01:20:10;9.80;;;8.27;;
16969;SDS011;8601;48.718;8.992;2023-06-26T01:22:42;8.87;;;7.90;;
16969;SDS011;8601;48.718;8.992;2023-06-26T01:25:17;9.10;;;7.90;;
16969;SDS011;8601;48.718;8.992;2023-06-26T01:27:52;9.17;;;7.47;;
16969;SDS011;8601;48.718;8.992;2023-06-26T01:30:20;9.07;;;7.33;;
16969;SDS011;8601;48.718;8.992;2023-06-26T01:32:48;8.30;;;7.50;;
16969;SDS011;8601;48.718;8.992;2023-06-26T01:35:16;8.37;;;7.47;;
16969;SDS011;8601;48.718;8.992;2023-06-26T01:37:43;8.47;;;7.57;;
16969;SDS011;8601;48.718;8.992;2023-06-26T01:40:10;8.60;;;7.80;;
16969;SDS011;8601;48.718;8.992;2023-06-26T01:42:37;8.37;;;7.57;;
16969;SDS011;8601;48.718;8.992;2023-06-26T01:45:07;8.07;;;7.27;;
16969;SDS011;8601;48.718;8.992;2023-06-26T01:47:38;8.17;;;7.37;;
16969;SDS011;8601;48.718;8.992;2023-06-26T01:50:11;8.63;;;7.67;;
16969;SDS011;8601;48.718;8.992;2023-06-26T01:52:45;9.20;;;8.03;;
16969;SDS011;8601;48.718;8.992;2023-06-26T01:55:17;8.50;;;7.60;;
16969;SDS011;8601;48.718;8.992;2023-06-26T01:57:47;8.67;;;7.87;;
16969;SDS011;8601;48.718;8.992;2023-06-26T02:00:20;9.03;;;7.40;;
16969;SDS011;8601;48.718;8.992;2023-06-26T02:02:47;9.67;;;7.87;;
16969;SDS011;8601;48.718;8.992;2023-06-26T02:05:14;8.97;;;7.80;;
16969;SDS011;8601;48.718;8.992;2023-06-26T02:07:41;8.70;;;7.73;;
16969;SDS011;8601;48.718;8.992;2023-06-26T02:10:09;8.13;;;7.33;;
16969;SDS011;8601;48.718;8.992;2023-06-26T02:12:36;8.40;;;7.50;;
16969;SDS011;8601;48.718;8.992;2023-06-26T02:15:04;8.77;;;7.87;;
16969;SDS011;8601;48.718;8.992;2023-06-26T02:17:33;8.70;;;7.57;;
16969;SDS011;8601;48.718;8.992;2023-06-26T02:20:00;7.90;;;7.10;;
16969;SDS011;8601;48.718;8.992;2023-06-26T02:22:27;8.37;;;7.57;;
16969;SDS011;8601;48.718;8.992;2023-06-26T02:24:54;8.73;;;7.50;;
16969;SDS011;8601;48.718;8.992;2023-06-26T02:27:21;9.33;;;8.00;;
16969;SDS011;8601;48.718;8.992;2023-06-26T02:29:48;8.97;;;7.90;;
16969;SDS011;8601;48.718;8.992;2023-06-26T02:32:15;7.77;;;6.97;;
16969;SDS011;8601;48.718;8.992;2023-06-26T02:34:43;9.57;;;7.57;;
16969;SDS011;8601;48.718;8.992;2023-06-26T02:37:10;8.13;;;7.33;;
16969;SDS011;8601;48.718;8.992;2023-06-26T02:39:37;8.50;;;7.70;;
16969;SDS011;8601;48.718;8.992;2023-06-26T02:42:04;8.77;;;7.20;;
16969;SDS011;8601;48.718;8.992;2023-06-26T02:44:31;8.70;;;7.80;;
16969;SDS011;8601;48.718;8.992;2023-06-26T02:46:58;8.20;;;7.40;;
16969;SDS011;8601;48.718;8.992;2023-06-26T02:49:25;9.20;;;7.93;;
16969;SDS011;8601;48.718;8.992;2023-06-26T02:51:53;8.50;;;7.60;;
16969;SDS011;8601;48.718;8.992;2023-06-26T02:54:20;9.60;;;8.60;;
16969;SDS011;8601;48.718;8.992;2023-06-26T02:56:47;8.57;;;7.50;;
16969;SDS011;8601;48.718;8.992;2023-06-26T02:59:15;9.27;;;8.03;;
16969;SDS011;8601;48.718;8.992;2023-06-26T03:01:42;9.23;;;7.83;;
16969;SDS011;8601;48.718;8.992;2023-06-26T03:04:09;9.70;;;7.90;;
16969;SDS011;8601;48.718;8.992;2023-06-26T03:06:36;8.90;;;7.70;;
16969;SDS011;8601;48.718;8.992;2023-06-26T03:09:04;9.10;;;7.53;;
16969;SDS011;8601;48.718;8.992;2023-06-26T03:11:31;8.13;;;7.33;;
16969;SDS011;8601;48.718;8.992;2023-06-26T03:13:58;8.60;;;7.27;;
16969;SDS011;8601;48.718;8.992;2023-06-26T03:16:25;8.57;;;7.73;;
16969;SDS011;8601;48.718;8.992;2023-06-26T03:18:52;7.63;;;6.93;;
16969;SDS011;8601;48.718;8.992;2023-06-26T03:21:19;7.97;;;7.17;;
16969;SDS011;8601;48.718;8.992;2023-06-26T03:23:45;8.83;;;7.50;;
16969;SDS011;8601;48.718;8.992;2023-06-26T03:26:14;8.10;;;7.30;;
16969;SDS011;8601;48.718;8.992;2023-06-26T03:28:40;7.90;;;7.20;;
16969;SDS011;8601;48.718;8.992;2023-06-26T03:31:08;8.10;;;7.30;;
16969;SDS011;8601;48.718;8.992;2023-06-26T03:33:35;8.60;;;7.80;;
16969;SDS011;8601;48.718;8.992;2023-06-26T03:36:03;8.70;;;7.80;;
16969;SDS011;8601;48.718;8.992;2023-06-26T03:38:31;7.47;;;6.77;;
16969;SDS011;8601;48.718;8.992;2023-06-26T03:40:58;7.57;;;6.87;;
16969;SDS011;8601;48.718;8.992;2023-06-26T03:43:26;8.57;;;7.67;;
16969;SDS011;8601;48.718;8.992;2023-06-26T03:45:53;8.37;;;7.50;;
16969;SDS011;8601;48.718;8.992;2023-06-26T03:48:20;8.33;;;7.10;;
16969;SDS011;8601;48.718;8.992;2023-06-26T03:50:47;7.90;;;7.07;;
16969;SDS011;8601;48.718;8.992;2023-06-26T03:53:14;8.03;;;7.23;;
16969;SDS011;8601;48.718;8.992;2023-06-26T03:55:41;8.27;;;7.37;;
16969;SDS011;8601;48.718;8.992;2023-06-26T03:58:08;8.80;;;7.93;;
16969;SDS011;8601;48.718;8.992;2023-06-26T04:00:36;8.63;;;7.37;;
16969;SDS011;8601;48.718;8.992;2023-06-26T04:03:03;7.43;;;6.73;;
16969;SDS011;8601;48.718;8.992;2023-06-26T04:05:30;8.67;;;7.20;;
16969;SDS011;8601;48.718;8.992;2023-06-26T04:07:57;8.70;;;7.80;;
16969;SDS011;8601;48.718;8.992;2023-06-26T04:10:24;8.17;;;7.30;;
16969;SDS011;8601;48.718;8.992;2023-06-26T04:12:51;9.70;;;7.40;;
16969;SDS011;8601;48.718;8.992;2023-06-26T04:15:18;8.07;;;7.27;;
16969;SDS011;8601;48.718;8.992;2023-06-26T04:17:46;8.70;;;7.40;;
16969;SDS011;8601;48.718;8.992;2023-06-26T04:20:13;8.20;;;7.40;;
16969;SDS011;8601;48.718;8.992;2023-06-26T04:22:40;8.10;;;7.30;;
16969;SDS011;8601;48.718;8.992;2023-06-26T04:25:07;8.30;;;7.23;;
16969;SDS011;8601;48.718;8.992;2023-06-26T04:27:36;7.90;;;7.10;;
16969;SDS011;8601;48.718;8.992;2023-06-26T04:30:04;8.50;;;7.60;;
16969;SDS011;8601;48.718;8.992;2023-06-26T04:32:32;9.27;;;6.67;;
16969;SDS011;8601;48.718;8.992;2023-06-26T04:35:00;7.53;;;6.73;;
16969;SDS011;8601;48.718;8.992;2023-06-26T04:37:28;8.27;;;7.30;;
16969;SDS011;8601;48.718;8.992;2023-06-26T04:39:54;9.57;;;7.30;;
16969;SDS011;8601;48.718;8.992;2023-06-26T04:42:21;8.40;;;7.50;;
16969;SDS011;8601;48.718;8.992;2023-06-26T04:44:48;8.00;;;7.20;;
16969;SDS011;8601;48.718;8.992;2023-06-26T04:47:15;8.00;;;7.20;;
16969;SDS011;8601;48.718;8.992;2023-06-26T04:49:42;7.93;;;7.13;;
16969;SDS011;8601;48.718;8.992;2023-06-26T04:52:12;8.03;;;7.07;;
16969;SDS011;8601;48.718;8.992;2023-06-26T04:54:39;9.10;;;7.63;;
16969;SDS011;8601;48.718;8.992;2023-06-26T04:57:06;9.10;;;6.80;;
16969;SDS011;8601;48.718;8.992;2023-06-26T04:59:34;8.57;;;7.17;;
16969;SDS011;8601;48.718;8.992;2023-06-26T05:02:01;7.97;;;7.17;;
16969;SDS011;8601;48.718;8.992;2023-06-26T05:04:30;7.70;;;7.00;;
16969;SDS011;8601;48.718;8.992;2023-06-26T05:06:56;7.67;;;6.87;;
16969;SDS011;8601;48.718;8.992;2023-06-26T05:09:25;7.53;;;6.57;;
16969;SDS011;8601;48.718;8.992;2023-06-26T05:11:52;8.40;;;6.97;;
16969;SDS011;8601;48.718;8.992;2023-06-26T05:14:19;7.67;;;6.87;;
16969;SDS011;8601;48.718;8.992;2023-06-26T05:16:46;8.83;;;7.13;;
16969;SDS011;8601;48.718;8.992;2023-06-26T05:19:13;8.17;;;6.77;;
16969;SDS011;8601;48.718;8.992;2023-06-26T05:21:40;7.67;;;6.87;;
16969;SDS011;8601;48.718;8.992;2023-06-26T05:24:08;7.50;;;6.80;;
16969;SDS011;8601;48.718;8.992;2023-06-26T05:26:38;8.10;;;7.07;;
16969;SDS011;8601;48.718;8.992;2023-06-26T05:29:06;7.27;;;6.57;;
16969;SDS011;8601;48.718;8.992;2023-06-26T05:31:33;7.87;;;6.90;;
16969;SDS011;8601;48.718;8.992;2023-06-26T05:34:06;9.30;;;6.37;;
16969;SDS011;8601;48.718;8.992;2023-06-26T05:36:36;7.17;;;6.47;;
16969;SDS011;8601;48.718;8.992;2023-06-26T05:39:05;7.50;;;6.73;;
16969;SDS011;8601;48.718;8.992;2023-06-26T05:41:32;7.53;;;6.73;;
16969;SDS011;8601;48.718;8.992;2023-06-26T05:44:01;7.63;;;6.23;;
16969;SDS011;8601;48.718;8.992;2023-06-26T05:46:28;8.37;;;6.90;;
16969;SDS011;8601;48.718;8.992;2023-06-26T05:48:55;7.33;;;6.63;;
16969;SDS011;8601;48.718;8.992;2023-06-26T05:51:23;7.17;;;6.47;;
16969;SDS011;8601;48.718;8.992;2023-06-26T05:53:50;7.30;;;6.60;;
16969;SDS011;8601;48.718;8.992;2023-06-26T05:56:18;10.27;;;6.73;;
16969;SDS011;8601;48.718;8.992;2023-06-26T05:58:45;7.37;;;6.63;;
16969;SDS011;8601;48.718;8.992;2023-06-26T06:01:14;6.80;;;6.10;;
16969;SDS011;8601;48.718;8.992;2023-06-26T06:03:41;8.37;;;6.23;;
16969;SDS011;8601;48.718;8.992;2023-06-26T06:06:08;8.37;;;6.77;;
16969;SDS011;8601;48.718;8.992;2023-06-26T06:08:35;6.77;;;6.07;;
16969;SDS011;8601;48.718;8.992;2023-06-26T06:11:02;8.93;;;6.40;;
16969;SDS011;8601;48.718;8.992;2023-06-26T06:13:29;7.43;;;6.50;;
16969;SDS011;8601;48.718;8.992;2023-06-26T06:15:56;7.00;;;6.33;;
16969;SDS011;8601;48.718;8.992;2023-06-26T06:18:24;7.70;;;6.63;;
16969;SDS011;8601;48.718;8.992;2023-06-26T06:20:51;7.00;;;5.90;;
16969;SDS011;8601;48.718;8.992;2023-06-26T06:23:18;6.87;;;6.10;;
16969;SDS011;8601;48.718;8.992;2023-06-26T06:25:44;6.53;;;5.93;;
16969;SDS011;8601;48.718;8.992;2023-06-26T06:28:11;7.53;;;6.53;;
16969;SDS011;8601;48.718;8.992;2023-06-26T06:30:41;6.60;;;5.90;;
16969;SDS011;8601;48.718;8.992;2023-06-26T06:33:08;6.43;;;5.83;;
16969;SDS011;8601;48.718;8.992;2023-06-26T06:35:36;6.60;;;6.00;;
16969;SDS011;8601;48.718;8.992;2023-06-26T06:38:03;6.13;;;5.50;;
16969;SDS011;8601;48.718;8.992;2023-06-26T06:40:30;6.97;;;6.27;;
16969;SDS011;8601;48.718;8.992;2023-06-26T06:42:57;6.77;;;5.83;;
16969;SDS011;8601;48.718;8.992;2023-06-26T06:45:24;8.70;;;6.10;;
16969;SDS011;8601;48.718;8.992;2023-06-26T06:47:51;8.60;;;6.47;;
16969;SDS011;8601;48.718;8.992;2023-06-26T06:50:18;6.40;;;5.80;;
16969;SDS011;8601;48.718;8.992;2023-06-26T06:52:46;9.37;;;6.70;;
16969;SDS011;8601;48.718;8.992;2023-06-26T06:55:14;8.20;;;6.10;;
16969;SDS011;8601;48.718;8.992;2023-06-26T06:57:40;6.90;;;5.90;;
16969;SDS011;8601;48.718;8.992;2023-06-26T07:00:08;6.60;;;6.00;;
16969;SDS011;8601;48.718;8.992;2023-06-26T07:02:37;8.97;;;6.40;;
16969;SDS011;8601;48.718;8.992;2023-06-26T07:05:04;7.40;;;5.83;;
16969;SDS011;8601;48.718;8.992;2023-06-26T07:07:32;10.27;;;5.97;;
16969;SDS011;8601;48.718;8.992;2023-06-26T07:10:02;8.77;;;5.90;;
16969;SDS011;8601;48.718;8.992;2023-06-26T07:12:30;6.97;;;6.27;;
16969;SDS011;8601;48.718;8.992;2023-06-26T07:14:59;9.30;;;5.30;;
16969;SDS011;8601;48.718;8.992;2023-06-26T07:17:27;7.40;;;4.80;;
16969;SDS011;8601;48.718;8.992;2023-06-26T07:19:54;6.80;;;5.33;;
16969;SDS011;8601;48.718;8.992;2023-06-26T07:22:21;6.60;;;5.23;;
16969;SDS011;8601;48.718;8.992;2023-06-26T07:24:49;8.13;;;4.97;;
16969;SDS011;8601;48.718;8.992;2023-06-26T07:27:17;5.07;;;4.60;;
16969;SDS011;8601;48.718;8.992;2023-06-26T07:29:47;5.37;;;4.87;;
16969;SDS011;8601;48.718;8.992;2023-06-26T07:32:14;5.27;;;4.40;;
16969;SDS011;8601;48.718;8.992;2023-06-26T07:34:41;5.00;;;4.50;;
16969;SDS011;8601;48.718;8.992;2023-06-26T07:37:08;5.07;;;4.32;;
16969;SDS011;8601;48.718;8.992;2023-06-26T07:39:34;4.82;;;4.00;;
16969;SDS011;8601;48.718;8.992;2023-06-26T07:42:01;4.38;;;3.97;;
16969;SDS011;8601;48.718;8.992;2023-06-26T07:44:30;4.78;;;4.20;;
16969;SDS011;8601;48.718;8.992;2023-06-26T07:46:57;6.53;;;4.65;;
16969;SDS011;8601;48.718;8.992;2023-06-26T07:49:23;5.80;;;4.20;;
16969;SDS011;8601;48.718;8.992;2023-06-26T07:51:51;4.70;;;4.30;;
16969;SDS011;8601;48.718;8.992;2023-06-26T07:54:18;4.18;;;3.78;;
16969;SDS011;8601;48.718;8.992;2023-06-26T07:56:52;4.53;;;4.13;;
16969;SDS011;8601;48.718;8.992;2023-06-26T07:59:20;7.18;;;3.95;;
16969;SDS011;8601;48.718;8.992;2023-06-26T08:01:49;4.65;;;4.25;;
16969;SDS011;8601;48.718;8.992;2023-06-26T08:04:17;4.20;;;3.83;;
16969;SDS011;8601;48.718;8.992;2023-06-26T08:06:45;5.57;;;4.10;;
16969;SDS011;8601;48.718;8.992;2023-06-26T08:09:12;4.32;;;3.92;;
16969;SDS011;8601;48.718;8.992;2023-06-26T08:11:38;4.60;;;4.20;;
16969;SDS011;8601;48.718;8.992;2023-06-26T08:14:05;4.97;;;4.45;;
16969;SDS011;8601;48.718;8.992;2023-06-26T08:16:32;4.80;;;4.30;;
16969;SDS011;8601;48.718;8.992;2023-06-26T08:19:01;4.93;;;4.40;;
16969;SDS011;8601;48.718;8.992;2023-06-26T08:21:27;4.95;;;3.97;;
16969;SDS011;8601;48.718;8.992;2023-06-26T08:23:55;4.50;;;4.10;;
16969;SDS011;8601;48.718;8.992;2023-06-26T08:26:22;4.70;;;4.30;;
16969;SDS011;8601;48.718;8.992;2023-06-26T08:28:48;4.60;;;4.20;;
16969;SDS011;8601;48.718;8.992;2023-06-26T08:31:15;4.78;;;3.92;;
16969;SDS011;8601;48.718;8.992;2023-06-26T08:33:43;4.65;;;4.25;;
16969;SDS011;8601;48.718;8.992;2023-06-26T08:36:11;5.07;;;4.30;;
16969;SDS011;8601;48.718;8.992;2023-06-26T08:38:38;5.07;;;4.57;;
16969;SDS011;8601;48.718;8.992;2023-06-26T08:41:06;4.82;;;4.30;;
16969;SDS011;8601;48.718;8.992;2023-06-26T08:43:33;4.97;;;4.47;;
16969;SDS011;8601;48.718;8.992;2023-06-26T08:46:00;4.78;;;4.28;;
16969;SDS011;8601;48.718;8.992;2023-06-26T08:48:28;5.07;;;4.55;;
16969;SDS011;8601;48.718;8.992;2023-06-26T08:50:57;4.80;;;4.38;;
16969;SDS011;8601;48.718;8.992;2023-06-26T08:53:36;4.97;;;4.30;;
16969;SDS011;8601;48.718;8.992;2023-06-26T08:56:22;4.88;;;4.15;;
16969;SDS011;8601;48.718;8.992;2023-06-26T08:58:50;5.38;;;4.85;;
16969;SDS011;8601;48.718;8.992;2023-06-26T09:01:17;4.75;;;4.35;;
16969;SDS011;8601;48.718;8.992;2023-06-26T09:03:45;5.53;;;5.00;;
16969;SDS011;8601;48.718;8.992;2023-06-26T09:06:11;8.82;;;4.53;;
16969;SDS011;8601;48.718;8.992;2023-06-26T09:08:40;8.93;;;4.68;;
16969;SDS011;8601;48.718;8.992;2023-06-26T09:11:07;5.32;;;4.82;;
16969;SDS011;8601;48.718;8.992;2023-06-26T09:13:34;5.03;;;4.53;;
16969;SDS011;8601;48.718;8.992;2023-06-26T09:16:04;5.03;;;4.55;;
16969;SDS011;8601;48.718;8.992;2023-06-26T09:18:33;5.05;;;4.65;;
16969;SDS011;8601;48.718;8.992;2023-06-26T09:21:00;4.97;;;4.57;;
16969;SDS011;8601;48.718;8.992;2023-06-26T09:23:33;4.70;;;4.30;;
16969;SDS011;8601;48.718;8.992;2023-06-26T09:26:02;4.70;;;4.30;;
16969;SDS011;8601;48.718;8.992;2023-06-26T09:28:30;5.28;;;4.53;;
16969;SDS011;8601;48.718;8.992;2023-06-26T09:31:00;4.72;;;4.32;;
16969;SDS011;8601;48.718;8.992;2023-06-26T09:33:32;5.07;;;4.57;;
16969;SDS011;8601;48.718;8.992;2023-06-26T09:36:02;4.32;;;3.92;;
16969;SDS011;8601;48.718;8.992;2023-06-26T09:38:31;5.18;;;4.68;;
16969;SDS011;8601;48.718;8.992;2023-06-26T09:41:01;4.78;;;4.38;;
16969;SDS011;8601;48.718;8.992;2023-06-26T09:43:30;5.68;;;4.97;;
16969;SDS011;8601;48.718;8.992;2023-06-26T09:45:57;7.15;;;4.18;;
16969;SDS011;8601;48.718;8.992;2023-06-26T09:48:24;5.55;;;4.88;;
16969;SDS011;8601;48.718;8.992;2023-06-26T09:50:51;5.03;;;4.53;;
16969;SDS011;8601;48.718;8.992;2023-06-26T09:53:20;4.97;;;4.47;;
16969;SDS011;8601;48.718;8.992;2023-06-26T09:55:47;5.07;;;4.68;;
16969;SDS011;8601;48.718;8.992;2023-06-26T09:58:16;5.57;;;4.85;;
16969;SDS011;8601;48.718;8.992;2023-06-26T10:00:44;5.90;;;5.30;;
16969;SDS011;8601;48.718;8.992;2023-06-26T10:03:11;5.15;;;4.65;;
16969;SDS011;8601;48.718;8.992;2023-06-26T10:05:38;5.15;;;4.75;;
16969;SDS011;8601;48.718;8.992;2023-06-26T10:08:06;5.43;;;4.93;;
16969;SDS011;8601;48.718;8.992;2023-06-26T10:10:34;5.18;;;4.68;;
16969;SDS011;8601;48.718;8.992;2023-06-26T10:13:04;5.47;;;4.80;;
16969;SDS011;8601;48.718;8.992;2023-06-26T10:15:36;4.80;;;4.40;;
16969;SDS011;8601;48.718;8.992;2023-06-26T10:18:04;5.07;;;4.60;;
16969;SDS011;8601;48.718;8.992;2023-06-26T10:20:32;5.88;;;4.97;;
16969;SDS011;8601;48.718;8.992;2023-06-26T10:23:00;6.95;;;5.05;;
16969;SDS011;8601;48.718;8.992;2023-06-26T10:25:28;9.38;;;5.32;;
16969;SDS011;8601;48.718;8.992;2023-06-26T10:27:58;7.22;;;5.28;;
16969;SDS011;8601;48.718;8.992;2023-06-26T10:30:28;5.93;;;5.40;;
16969;SDS011;8601;48.718;8.992;2023-06-26T10:32:59;6.60;;;5.35;;
16969;SDS011;8601;48.718;8.992;2023-06-26T10:35:27;5.85;;;5.35;;
16969;SDS011;8601;48.718;8.992;2023-06-26T10:37:59;5.95;;;5.13;;
16969;SDS011;8601;48.718;8.992;2023-06-26T10:40:30;6.95;;;5.18;;
16969;SDS011;8601;48.718;8.992;2023-06-26T10:43:07;6.15;;;5.55;;
16969;SDS011;8601;48.718;8.992;2023-06-26T10:45:36;6.07;;;5.47;;
16969;SDS011;8601;48.718;8.992;2023-06-26T10:48:04;5.93;;;5.43;;
16969;SDS011;8601;48.718;8.992;2023-06-26T10:50:32;6.00;;;5.35;;
16969;SDS011;8601;48.718;8.992;2023-06-26T10:53:07;6.53;;;5.90;;
16969;SDS011;8601;48.718;8.992;2023-06-26T10:55:35;6.18;;;5.57;;
16969;SDS011;8601;48.718;8.992;2023-06-26T10:58:02;6.90;;;6.20;;
16969;SDS011;8601;48.718;8.992;2023-06-26T11:00:30;6.07;;;5.32;;
16969;SDS011;8601;48.718;8.992;2023-06-26T11:02:57;6.40;;;5.68;;
16969;SDS011;8601;48.718;8.992;2023-06-26T11:05:27;6.18;;;5.55;;
16969;SDS011;8601;48.718;8.992;2023-06-26T11:08:05;10.02;;;5.72;;
16969;SDS011;8601;48.718;8.992;2023-06-26T11:13:26;5.88;;;5.32;;
16969;SDS011;8601;48.718;8.992;2023-06-26T11:15:53;6.18;;;5.57;;
16969;SDS011;8601;48.718;8.992;2023-06-26T11:18:22;5.70;;;5.10;;
16969;SDS011;8601;48.718;8.992;2023-06-26T11:20:51;6.50;;;5.53;;
16969;SDS011;8601;48.718;8.992;2023-06-26T11:23:20;7.78;;;5.68;;
16969;SDS011;8601;48.718;8.992;2023-06-26T11:25:50;5.45;;;5.00;;
16969;SDS011;8601;48.718;8.992;2023-06-26T11:28:17;6.65;;;5.47;;
16969;SDS011;8601;48.718;8.992;2023-06-26T11:30:44;7.10;;;5.82;;
16969;SDS011;8601;48.718;8.992;2023-06-26T11:33:11;6.57;;;5.72;;
16969;SDS011;8601;48.718;8.992;2023-06-26T11:35:38;9.80;;;5.47;;
16969;SDS011;8601;48.718;8.992;2023-06-26T11:38:06;5.82;;;5.32;;
16969;SDS011;8601;48.718;8.992;2023-06-26T11:40:34;8.05;;;5.22;;
16969;SDS011;8601;48.718;8.992;2023-06-26T11:43:03;7.30;;;5.63;;
16969;SDS011;8601;48.718;8.992;2023-06-26T11:45:31;6.40;;;5.80;;
16969;SDS011;8601;48.718;8.992;2023-06-26T11:47:58;6.80;;;5.55;;
16969;SDS011;8601;48.718;8.992;2023-06-26T11:50:26;6.72;;;6.03;;
16969;SDS011;8601;48.718;8.992;2023-06-26T11:52:54;6.10;;;5.50;;
16969;SDS011;8601;48.718;8.992;2023-06-26T11:55:23;6.53;;;5.88;;
16969;SDS011;8601;48.718;8.992;2023-06-26T11:57:52;8.93;;;5.40;;
16969;SDS011;8601;48.718;8.992;2023-06-26T12:00:24;6.00;;;5.50;;
16969;SDS011;8601;48.718;8.992;2023-06-26T12:02:51;5.28;;;4.85;;
16969;SDS011;8601;48.718;8.992;2023-06-26T12:05:19;5.80;;;5.10;;
16969;SDS011;8601;48.718;8.992;2023-06-26T12:07:47;6.65;;;5.10;;
16969;SDS011;8601;48.718;8.992;2023-06-26T12:10:15;8.27;;;5.78;;
16969;SDS011;8601;48.718;8.992;2023-06-26T12:12:45;6.15;;;5.40;;
16969;SDS011;8601;48.718;8.992;2023-06-26T12:15:13;5.53;;;5.03;;
16969;SDS011;8601;48.718;8.992;2023-06-26T12:17:41;5.78;;;5.20;;
16969;SDS011;8601;48.718;8.992;2023-06-26T12:20:17;7.18;;;5.55;;
16969;SDS011;8601;48.718;8.992;2023-06-26T12:22:45;6.20;;;5.45;;
16969;SDS011;8601;48.718;8.992;2023-06-26T12:25:13;6.15;;;5.55;;
16969;SDS011;8601;48.718;8.992;2023-06-26T12:27:40;6.32;;;5.43;;
16969;SDS011;8601;48.718;8.992;2023-06-26T12:30:12;6.35;;;5.75;;
16969;SDS011;8601;48.718;8.992;2023-06-26T12:32:40;7.32;;;5.35;;
16969;SDS011;8601;48.718;8.992;2023-06-26T12:35:09;6.47;;;5.53;;
16969;SDS011;8601;48.718;8.992;2023-06-26T12:37:37;5.45;;;4.95;;
16969;SDS011;8601;48.718;8.992;2023-06-26T12:40:09;5.65;;;5.15;;
16969;SDS011;8601;48.718;8.992;2023-06-26T12:42:43;6.28;;;5.50;;
16969;SDS011;8601;48.718;8.992;2023-06-26T12:45:13;6.15;;;5.38;;
16969;SDS011;8601;48.718;8.992;2023-06-26T12:47:41;6.30;;;5.68;;
16969;SDS011;8601;48.718;8.992;2023-06-26T12:50:08;8.20;;;6.00;;
16969;SDS011;8601;48.718;8.992;2023-06-26T12:52:35;6.00;;;5.40;;
16969;SDS011;8601;48.718;8.992;2023-06-26T12:55:02;5.60;;;4.85;;
16969;SDS011;8601;48.718;8.992;2023-06-26T12:57:29;6.32;;;5.53;;
16969;SDS011;8601;48.718;8.992;2023-06-26T12:59:56;5.85;;;5.30;;
16969;SDS011;8601;48.718;8.992;2023-06-26T13:02:26;7.88;;;5.40;;
16969;SDS011;8601;48.718;8.992;2023-06-26T13:04:52;10.23;;;5.32;;
16969;SDS011;8601;48.718;8.992;2023-06-26T13:07:20;6.20;;;5.30;;
16969;SDS011;8601;48.718;8.992;2023-06-26T13:09:50;5.68;;;4.90;;
16969;SDS011;8601;48.718;8.992;2023-06-26T13:12:17;7.10;;;5.13;;
16969;SDS011;8601;48.718;8.992;2023-06-26T13:14:44;6.70;;;5.15;;
16969;SDS011;8601;48.718;8.992;2023-06-26T13:17:11;5.45;;;4.85;;
16969;SDS011;8601;48.718;8.992;2023-06-26T13:19:39;5.82;;;5.15;;
16969;SDS011;8601;48.718;8.992;2023-06-26T13:22:06;5.32;;;4.80;;
16969;SDS011;8601;48.718;8.992;2023-06-26T13:24:32;4.70;;;4.30;;
16969;SDS011;8601;48.718;8.992;2023-06-26T13:27:00;5.13;;;4.50;;
16969;SDS011;8601;48.718;8.992;2023-06-26T13:29:27;4.88;;;4.40;;
16969;SDS011;8601;48.718;8.992;2023-06-26T13:31:54;6.38;;;4.72;;
16969;SDS011;8601;48.718;8.992;2023-06-26T13:34:22;6.40;;;4.10;;
16969;SDS011;8601;48.718;8.992;2023-06-26T13:36:54;5.70;;;4.50;;
16969;SDS011;8601;48.718;8.992;2023-06-26T13:39:20;5.65;;;4.65;;
16969;SDS011;8601;48.718;8.992;2023-06-26T13:41:47;4.57;;;4.18;;
16969;SDS011;8601;48.718;8.992;2023-06-26T13:44:14;5.63;;;4.55;;
16969;SDS011;8601;48.718;8.992;2023-06-26T13:46:41;5.85;;;4.25;;
16969;SDS011;8601;48.718;8.992;2023-06-26T13:49:08;6.85;;;4.60;;
16969;SDS011;8601;48.718;8.992;2023-06-26T13:51:35;8.25;;;4.70;;
16969;SDS011;8601;48.718;8.992;2023-06-26T13:54:03;5.10;;;4.70;;
16969;SDS011;8601;48.718;8.992;2023-06-26T13:56:30;6.30;;;4.50;;
16969;SDS011;8601;48.718;8.992;2023-06-26T13:58:58;5.07;;;4.22;;
16969;SDS011;8601;48.718;8.992;2023-06-26T14:01:25;7.03;;;4.43;;
16969;SDS011;8601;48.718;8.992;2023-06-26T14:03:52;5.15;;;4.15;;
16969;SDS011;8601;48.718;8.992;2023-06-26T14:06:19;7.78;;;4.03;;
16969;SDS011;8601;48.718;8.992;2023-06-26T14:08:46;4.43;;;3.67;;
16969;SDS011;8601;48.718;8.992;2023-06-26T14:11:14;6.57;;;3.85;;
16969;SDS011;8601;48.718;8.992;2023-06-26T14:13:41;3.90;;;3.50;;
16969;SDS011;8601;48.718;8.992;2023-06-26T14:16:09;4.50;;;4.00;;
16969;SDS011;8601;48.718;8.992;2023-06-26T14:18:35;4.28;;;3.45;;
16969;SDS011;8601;48.718;8.992;2023-06-26T14:21:02;5.50;;;3.45;;
16969;SDS011;8601;48.718;8.992;2023-06-26T14:23:30;4.38;;;3.58;;
16969;SDS011;8601;48.718;8.992;2023-06-26T14:25:56;3.97;;;3.55;;
16969;SDS011;8601;48.718;8.992;2023-06-26T14:28:25;5.00;;;3.35;;
16969;SDS011;8601;48.718;8.992;2023-06-26T14:30:51;6.72;;;3.40;;
16969;SDS011;8601;48.718;8.992;2023-06-26T14:33:18;3.58;;;3.28;;
16969;SDS011;8601;48.718;8.992;2023-06-26T14:35:45;3.35;;;3.05;;
16969;SDS011;8601;48.718;8.992;2023-06-26T14:38:12;3.75;;;3.03;;
16969;SDS011;8601;48.718;8.992;2023-06-26T14:40:39;4.00;;;3.03;;
16969;SDS011;8601;48.718;8.992;2023-06-26T14:43:06;3.92;;;2.95;;
16969;SDS011;8601;48.718;8.992;2023-06-26T14:45:34;4.65;;;2.90;;
16969;SDS011;8601;48.718;8.992;2023-06-26T14:48:01;3.65;;;3.03;;
16969;SDS011;8601;48.718;8.992;2023-06-26T14:50:29;3.92;;;3.40;;
16969;SDS011;8601;48.718;8.992;2023-06-26T14:52:56;3.17;;;2.88;;
16969;SDS011;8601;48.718;8.992;2023-06-26T14:55:23;4.80;;;3.45;;
16969;SDS011;8601;48.718;8.992;2023-06-26T14:57:50;4.53;;;3.55;;
16969;SDS011;8601;48.718;8.992;2023-06-26T15:00:17;7.78;;;3.10;;
16969;SDS011;8601;48.718;8.992;2023-06-26T15:02:46;6.38;;;3.78;;
16969;SDS011;8601;48.718;8.992;2023-06-26T15:05:13;6.13;;;3.40;;
16969;SDS011;8601;48.718;8.992;2023-06-26T15:07:40;4.78;;;3.50;;